Forside
METAR-TAF:

METAR-TAF

Lufthavne :

Detroit, Michigan, USA

Breddekreds: 42-14-12N, længdekreds: 083-31-34W, højde: 218 m

Aktuelle vejr

Denne rapport blev lavet for 34 minutter siden, kl. 17:53 UTC
Vind 15 kt fra sydsydvest
Temperatur 9°C
Fugtighed 43%
Tryk 1015 hPa
Sigt: 16.1 km
skyfri

METAR: KYIP 231753Z 20015KT 10SM CLR 09/M03 A2996 RMK AO2 SLP148 T00941033 10100 21011 58025

Tid: 13:27 (18:27 UTC)

Vejrudsigter

Denne rapport blev lavet for 50 minutter siden, kl. 17:37 UTC
Foreløbig gælder fra 23 på 18 UTC til 24 på 18 UTC
Vind 13 kt fra sydsydvest med vindstød på up til 22 kt
Sigt: 10 km
skyfri
Fra 24 på 0000 UTC
Vind 11 kt fra sydsydvest
Sigt: 10 km
skyfri
Fra 24 på 0800 UTC
Vind 7 kt fra sydvest
Sigt: 10 km
Brudte skyer i en højde af 2500 ft
Fra 24 på 1400 UTC
Vind 5 kt fra nordnordvest
Sigt: 10 km
Brudte skyer i en højde af 2500 ft

TAF: KYIP 231737Z 2318/2418 20013G22KT P6SM SKC FM240000 21011KT P6SM SKC FM240800 22007KT P6SM BKN025 FM241400 33005KT P6SM BKN025

Vejrobservationer og prognoser fra mere end 4000 lufthavne (METAR og TAF).

De gule og røde prikker repræsenterer de meteorologiske stationer.

Flyt musen over at se navnet på stationen.

Så klik over at se vejr observationer og prognoser.

At skifte det kort: Klik på de grønne knapper med et sort kors for at zoome ind; på den grønne knap med en bindestreg for at zoome ud; eller på de grønne pile for tilstødende kort.


METAR-TAF: